Time,TemperatureF,DewpointF,PressureIn,WindDirection,WindDirectionDegrees,WindSpeedMPH,WindSpeedGustMPH,Humidity,HourlyPrecipIn,Conditions,Clouds,dailyrainin,SoftwareType,DateUTC
2013-09-01 00:00:00,67.0,63.7,29.85,NE,40,0.0,0.0,89,0.00,,SCT033,0.00,VWS V15.00,2013-09-01 04:00:00,
2013-09-01 00:01:00,67.0,63.7,29.85,NE,40,0.0,0.0,89,0.00,,FEW038,0.00,VWS V14.01,2013-09-01 04:01:00,
2013-09-01 00:02:00,67.0,63.7,29.85,NE,40,0.0,0.0,89,0.00,,FEW038,0.00,VWS V14.01,2013-09-01 04:02:00,
2013-09-01 00:03:00,67.0,63.7,29.85,NE,40,0.0,0.0,89,0.00,,FEW038,0.00,VWS V14.01,2013-09-01 04:03:00,
2013-09-01 00:07:00,67.1,63.8,29.85,NE,40,0.0,0.0,89,0.00,,FEW038,0.00,VWS V14.01,2013-09-01 04:07:00,
2013-09-01 00:11:00,67.2,63.8,29.85,NE,40,0.0,0.0,89,0.00,,OVC038,0.00,VWS V14.01,2013-09-01 04:11:00,
2013-09-01 00:15:00,67.2,63.8,29.84,NE,40,0.0,0.0,89,0.00,,SCT033,0.00,VWS V15.00,2013-09-01 04:15:00,
2013-09-01 00:16:00,67.3,64.0,29.84,NE,40,0.0,0.0,89,0.00,,OVC038,0.00,VWS V14.01,2013-09-01 04:16:00,
2013-09-01 00:21:00,67.3,64.0,29.84,NE,40,0.0,0.0,89,0.00,,OVC038,0.00,VWS V14.01,2013-09-01 04:21:00,
2013-09-01 00:26:00,67.4,64.4,29.84,NE,40,0.0,0.0,90,0.00,,OVC038,0.00,VWS V14.01,2013-09-01 04:26:00,
2013-09-01 00:30:00,67.5,64.5,29.84,NE,40,0.0,0.0,90,0.00,,SCT033,0.00,VWS V15.00,2013-09-01 04:30:00,
2013-09-01 00:31:00,67.5,64.5,29.84,NE,40,0.0,0.0,90,0.00,,OVC038,0.00,VWS V14.01,2013-09-01 04:31:00,
2013-09-01 00:36:00,67.6,64.6,29.84,NE,40,0.0,0.0,90,0.00,,OVC038,0.00,VWS V14.01,2013-09-01 04:36:00,
2013-09-01 00:41:00,67.7,64.7,29.84,NE,40,0.0,0.0,90,0.00,,OVC038,0.00,VWS V14.01,2013-09-01 04:41:00,
2013-09-01 00:45:00,67.9,64.5,29.84,NE,40,0.0,0.0,89,0.00,,SCT033,0.00,VWS V15.00,2013-09-01 04:45:00,
2013-09-01 00:46:00,67.9,64.5,29.84,NE,40,0.0,0.0,89,0.00,,OVC038,0.00,VWS V14.01,2013-09-01 04:46:00,
2013-09-01 00:51:00,68.0,64.6,29.84,NE,40,0.0,0.0,89,0.00,,OVC038,0.00,VWS V14.01,2013-09-01 04:51:00,
2013-09-01 00:56:00,68.1,64.7,29.84,NE,40,0.0,0.0,89,0.00,,OVC038,0.00,VWS V14.01,2013-09-01 04:56:00,
2013-09-01 01:00:00,68.1,64.7,29.84,NE,40,0.0,0.0,89,0.00,,SCT033,0.00,VWS V15.00,2013-09-01 05:00:00,
2013-09-01 01:01:00,68.1,64.7,29.84,NE,40,0.0,0.0,89,0.00,,BKN040,0.00,VWS V14.01,2013-09-01 05:01:00,
2013-09-01 01:06:00,68.1,64.7,29.84,NE,40,0.0,0.0,89,0.00,,BKN040,0.00,VWS V14.01,2013-09-01 05:06:00,
2013-09-01 01:11:00,68.1,64.7,29.84,NE,40,0.0,0.0,89,0.00,,BKN040,0.00,VWS V14.01,2013-09-01 05:11:00,
2013-09-01 01:15:00,68.0,64.3,29.84,NE,40,0.0,0.0,88,0.00,,SCT033,0.00,VWS V15.00,2013-09-01 05:15:00,
2013-09-01 01:16:00,68.0,64.3,29.84,NE,40,0.0,0.0,88,0.00,,BKN040,0.00,VWS V14.01,2013-09-01 05:16:00,
2013-09-01 01:22:00,67.8,64.1,29.84,NE,40,0.0,0.0,88,0.00,,BKN040,0.00,VWS V14.01,2013-09-01 05:22:00,
2013-09-01 01:27:00,67.7,64.0,29.83,NE,40,0.0,0.0,88,0.00,,BKN040,0.00,VWS V14.01,2013-09-01 05:27:00,
2013-09-01 01:30:00,67.6,63.9,29.83,NE,40,0.0,0.0,88,0.00,,SCT033,0.00,VWS V15.00,2013-09-01 05:30:00,
2013-09-01 01:32:00,67.6,63.9,29.83,NE,40,0.0,0.0,88,0.00,,BKN040,0.00,VWS V14.01,2013-09-01 05:32:00,
2013-09-01 01:37:00,67.5,63.8,29.83,NE,40,0.0,0.0,88,0.00,,BKN040,0.00,VWS V14.01,2013-09-01 05:37:00,
2013-09-01 01:42:00,67.3,63.6,29.83,NE,40,0.0,0.0,88,0.00,,BKN040,0.00,VWS V14.01,2013-09-01 05:42:00,
2013-09-01 01:45:00,67.3,63.3,29.83,NE,40,0.0,0.0,87,0.00,,SCT033,0.00,VWS V15.00,2013-09-01 05:45:00,
2013-09-01 01:47:00,67.2,63.2,29.83,NE,40,0.0,0.0,87,0.00,,BKN040,0.00,VWS V14.01,2013-09-01 05:47:00,
2013-09-01 01:52:00,67.1,63.1,29.83,NE,40,0.0,0.0,87,0.00,,BKN040,0.00,VWS V14.01,2013-09-01 05:52:00,
2013-09-01 01:57:00,66.8,62.8,29.83,NE,40,0.0,0.0,87,0.00,,BKN040,0.00,VWS V14.01,2013-09-01 05:57:00,
2013-09-01 02:00:00,66.7,62.7,29.83,NE,40,0.0,0.0,87,0.00,,SCT033,0.00,VWS V15.00,2013-09-01 06:00:00,
2013-09-01 02:02:00,66.6,62.6,29.83,NE,40,0.0,0.0,87,0.00,,CLR,0.00,VWS V14.01,2013-09-01 06:02:00,
2013-09-01 02:07:00,66.4,62.4,29.83,NE,40,0.0,0.0,87,0.00,,CLR,0.00,VWS V14.01,2013-09-01 06:07:00,
2013-09-01 02:12:00,66.2,62.2,29.82,NE,40,0.0,0.0,87,0.00,,CLR,0.00,VWS V14.01,2013-09-01 06:12:00,
2013-09-01 02:15:00,66.1,62.1,29.82,NE,40,0.0,0.0,87,0.00,,SCT033,0.00,VWS V15.00,2013-09-01 06:15:00,
2013-09-01 02:17:00,66.0,62.0,29.82,NE,40,0.0,0.0,87,0.00,,CLR,0.00,VWS V14.01,2013-09-01 06:17:00,
2013-09-01 02:22:00,65.8,61.8,29.82,NE,40,0.0,0.0,87,0.00,,CLR,0.00,VWS V14.01,2013-09-01 06:22:00,
2013-09-01 02:27:00,65.7,61.7,29.81,NE,40,0.0,0.0,87,0.00,,CLR,0.00,VWS V14.01,2013-09-01 06:27:00,
2013-09-01 02:30:00,65.6,61.6,29.81,NE,40,0.0,0.0,87,0.00,,SCT033,0.00,VWS V15.00,2013-09-01 06:30:00,
2013-09-01 02:32:00,65.5,61.5,29.81,NE,40,0.0,0.0,87,0.00,,CLR,0.00,VWS V14.01,2013-09-01 06:32:00,
2013-09-01 02:38:00,65.3,61.3,29.81,NE,40,0.0,0.0,87,0.00,,CLR,0.00,VWS V14.01,2013-09-01 06:38:00,
2013-09-01 02:43:00,65.2,61.6,29.81,NE,40,0.0,0.0,88,0.00,,CLR,0.00,VWS V14.01,2013-09-01 06:43:00,
2013-09-01 02:45:00,65.2,61.6,29.81,NE,40,0.0,0.0,88,0.00,,SCT033,0.00,VWS V15.00,2013-09-01 06:45:00,
2013-09-01 02:48:00,65.2,61.6,29.81,NE,40,0.0,0.0,88,0.00,,CLR,0.00,VWS V14.01,2013-09-01 06:48:00,
2013-09-01 02:53:00,65.3,62.0,29.81,NE,40,0.0,0.0,89,0.00,,CLR,0.00,VWS V14.01,2013-09-01 06:53:00,
2013-09-01 02:58:00,65.5,62.2,29.80,NE,40,0.0,0.0,89,0.00,,CLR,0.00,VWS V14.01,2013-09-01 06:58:00,
2013-09-01 03:00:00,65.5,62.2,29.80,NE,40,0.0,0.0,89,0.00,,SCT033,0.00,VWS V15.00,2013-09-01 07:00:00,
2013-09-01 03:03:00,65.6,62.3,29.80,NE,40,0.0,0.0,89,0.00,,SCT035,0.00,VWS V14.01,2013-09-01 07:03:00,
2013-09-01 03:08:00,65.8,62.8,29.80,NE,40,0.0,0.0,90,0.00,,SCT035,0.00,VWS V14.01,2013-09-01 07:08:00,
2013-09-01 03:13:00,65.9,62.9,29.81,NE,40,0.0,0.0,90,0.00,,SCT035,0.00,VWS V14.01,2013-09-01 07:13:00,
2013-09-01 03:15:00,66.0,63.0,29.81,NE,40,0.0,0.0,90,0.00,,SCT033,0.00,VWS V15.00,2013-09-01 07:15:00,
2013-09-01 03:18:00,66.1,63.1,29.81,NE,40,0.0,0.0,90,0.00,,SCT035,0.00,VWS V14.01,2013-09-01 07:18:00,
2013-09-01 03:23:00,66.3,63.3,29.81,NE,40,0.0,0.0,90,0.00,,SCT035,0.00,VWS V14.01,2013-09-01 07:23:00,
2013-09-01 03:28:00,66.4,63.4,29.81,NE,40,0.0,0.0,90,0.00,,SCT035,0.00,VWS V14.01,2013-09-01 07:28:00,
2013-09-01 03:30:00,66.5,63.5,29.81,NE,40,0.0,0.0,90,0.00,,SCT033,0.00,VWS V15.00,2013-09-01 07:30:00,
2013-09-01 03:33:00,66.5,63.5,29.81,NE,40,0.0,0.0,90,0.00,,SCT035,0.00,VWS V14.01,2013-09-01 07:33:00,
2013-09-01 03:38:00,66.6,63.6,29.81,NE,40,0.0,0.0,90,0.00,,SCT035,0.00,VWS V14.01,2013-09-01 07:38:00,
2013-09-01 03:43:00,66.7,63.7,29.81,NE,40,0.0,0.0,90,0.00,,SCT035,0.00,VWS V14.01,2013-09-01 07:43:00,
2013-09-01 03:45:00,66.7,63.7,29.81,NE,40,0.0,0.0,90,0.00,,SCT033,0.00,VWS V15.00,2013-09-01 07:45:00,
2013-09-01 03:48:00,66.7,63.7,29.81,NE,40,0.0,0.0,90,0.00,,SCT035,0.00,VWS V14.01,2013-09-01 07:48:00,
2013-09-01 03:53:00,66.7,63.7,29.80,NE,40,0.0,0.0,90,0.00,,SCT035,0.00,VWS V14.01,2013-09-01 07:53:00,
2013-09-01 03:58:00,66.6,63.6,29.80,NE,40,0.0,0.0,90,0.00,,SCT035,0.00,VWS V14.01,2013-09-01 07:58:00,
2013-09-01 04:00:00,66.6,63.6,29.80,NE,40,0.0,0.0,90,0.00,,SCT033,0.00,VWS V15.00,2013-09-01 08:00:00,
2013-09-01 04:03:00,66.6,63.6,29.80,NE,40,0.0,0.0,90,0.00,,BKN045,0.00,VWS V14.01,2013-09-01 08:03:00,
2013-09-01 04:08:00,66.5,63.5,29.80,NE,40,0.0,0.0,90,0.00,,BKN045,0.00,VWS V14.01,2013-09-01 08:08:00,
2013-09-01 04:13:00,66.4,63.4,29.80,NE,40,0.0,0.0,90,0.00,,BKN045,0.00,VWS V14.01,2013-09-01 08:13:00,
2013-09-01 04:15:00,66.3,63.3,29.80,NE,40,0.0,0.0,90,0.00,,SCT033,0.00,VWS V15.00,2013-09-01 08:15:00,
2013-09-01 04:19:00,66.2,63.2,29.80,NE,40,0.0,0.0,90,0.00,,BKN045,0.00,VWS V14.01,2013-09-01 08:19:00,
2013-09-01 04:24:00,66.2,63.2,29.80,NE,40,0.0,0.0,90,0.00,,BKN045,0.00,VWS V14.01,2013-09-01 08:24:00,
2013-09-01 04:29:00,66.1,63.1,29.80,NE,40,0.0,0.0,90,0.00,,BKN045,0.00,VWS V14.01,2013-09-01 08:29:00,
2013-09-01 04:30:00,66.1,63.1,29.80,NE,40,0.0,0.0,90,0.00,,SCT033,0.00,VWS V15.00,2013-09-01 08:30:00,
2013-09-01 04:34:00,66.0,63.0,29.80,NE,40,0.0,0.0,90,0.00,,BKN045,0.00,VWS V14.01,2013-09-01 08:34:00,
2013-09-01 04:39:00,65.9,62.9,29.80,NE,40,0.0,0.0,90,0.00,,BKN045,0.00,VWS V14.01,2013-09-01 08:39:00,
2013-09-01 04:44:00,65.9,62.9,29.80,NE,40,0.0,0.0,90,0.00,,BKN045,0.00,VWS V14.01,2013-09-01 08:44:00,
2013-09-01 04:45:00,65.9,62.9,29.80,NE,40,0.0,1.0,90,0.00,,SCT033,0.00,VWS V15.00,2013-09-01 08:45:00,
2013-09-01 04:49:00,65.8,62.8,29.79,NE,40,0.0,0.0,90,0.00,,BKN045,0.00,VWS V14.01,2013-09-01 08:49:00,
2013-09-01 04:54:00,65.8,62.8,29.79,NE,40,0.0,0.0,90,0.00,,BKN045,0.00,VWS V14.01,2013-09-01 08:54:00,
2013-09-01 04:59:00,65.7,62.7,29.80,NE,40,0.0,0.0,90,0.00,,BKN045,0.00,VWS V14.01,2013-09-01 08:59:00,
2013-09-01 05:00:00,65.7,62.7,29.80,NE,40,0.0,0.0,90,0.00,,SCT033,0.00,VWS V15.00,2013-09-01 09:00:00,
2013-09-01 05:04:00,65.6,62.6,29.80,NE,40,0.0,0.0,90,0.00,,BKN045,0.00,VWS V14.01,2013-09-01 09:04:00,
2013-09-01 05:09:00,65.6,62.6,29.79,NE,40,0.0,0.0,90,0.00,,BKN045,0.00,VWS V14.01,2013-09-01 09:09:00,
2013-09-01 05:14:00,65.5,62.5,29.79,NE,40,0.0,0.0,90,0.00,,BKN044,0.00,VWS V14.01,2013-09-01 09:14:00,
2013-09-01 05:15:00,65.5,62.5,29.79,NE,40,0.0,0.0,90,0.00,,SCT033,0.00,VWS V15.00,2013-09-01 09:15:00,
2013-09-01 05:19:00,65.4,62.4,29.80,NE,40,0.0,0.0,90,0.00,,BKN044,0.00,VWS V14.01,2013-09-01 09:19:00,
2013-09-01 05:24:00,65.4,62.4,29.80,NE,40,0.0,0.0,90,0.00,,BKN044,0.00,VWS V14.01,2013-09-01 09:24:00,
2013-09-01 05:29:00,65.3,62.3,29.79,NE,40,0.0,0.0,90,0.00,,BKN044,0.00,VWS V14.01,2013-09-01 09:29:00,
2013-09-01 05:30:00,65.3,62.3,29.79,NE,40,0.0,0.0,90,0.00,,SCT033,0.00,VWS V15.00,2013-09-01 09:30:00,
2013-09-01 05:34:00,65.2,62.2,29.79,NE,40,0.0,0.0,90,0.00,,BKN044,0.00,VWS V14.01,2013-09-01 09:34:00,
2013-09-01 05:39:00,65.1,62.1,29.79,NE,40,0.0,0.0,90,0.00,,BKN044,0.00,VWS V14.01,2013-09-01 09:39:00,
2013-09-01 05:44:00,65.0,62.0,29.80,NE,40,0.0,0.0,90,0.00,,BKN044,0.00,VWS V14.01,2013-09-01 09:44:00,
2013-09-01 05:45:00,65.0,62.0,29.80,NE,40,0.0,0.0,90,0.00,,SCT033,0.00,VWS V15.00,2013-09-01 09:45:00,
2013-09-01 05:49:00,64.9,61.9,29.80,NE,40,0.0,0.0,90,0.00,,BKN044,0.00,VWS V14.01,2013-09-01 09:49:00,
2013-09-01 05:54:00,64.7,61.7,29.80,NE,40,0.0,0.0,90,0.00,,BKN044,0.00,VWS V14.01,2013-09-01 09:54:00,
2013-09-01 05:59:00,64.6,61.6,29.80,NE,40,0.0,0.0,90,0.00,,BKN044,0.00,VWS V14.01,2013-09-01 09:59:00,
2013-09-01 06:00:00,64.6,61.6,29.80,NE,40,0.0,0.0,90,0.00,,SCT033,0.00,VWS V15.00,2013-09-01 10:00:00,
2013-09-01 06:04:00,64.4,61.4,29.80,NE,40,0.0,0.0,90,0.00,,BKN044,0.00,VWS V14.01,2013-09-01 10:04:00,
2013-09-01 06:09:00,64.3,61.3,29.79,NE,40,0.0,0.0,90,0.00,,BKN044,0.00,VWS V14.01,2013-09-01 10:09:00,
2013-09-01 06:14:00,64.1,61.1,29.79,NE,40,0.0,0.0,90,0.00,,BKN044,0.00,VWS V14.01,2013-09-01 10:14:00,
2013-09-01 06:15:00,64.1,61.1,29.79,NE,40,0.0,0.0,90,0.00,,SCT033,0.00,VWS V15.00,2013-09-01 10:15:00,
2013-09-01 06:19:00,64.1,61.1,29.79,NE,40,0.0,0.0,90,0.00,,BKN044,0.00,VWS V14.01,2013-09-01 10:19:00,
2013-09-01 06:24:00,64.2,61.5,29.79,NE,40,0.0,0.0,91,0.00,,,0.00,VWS V14.01,2013-09-01 10:24:00,
2013-09-01 06:29:00,64.4,61.7,29.78,NE,40,0.0,4.0,91,0.00,,,0.00,VWS V14.01,2013-09-01 10:29:00,
2013-09-01 06:30:00,64.4,61.7,29.78,NE,40,0.0,0.0,91,0.00,,SCT033,0.00,VWS V15.00,2013-09-01 10:30:00,
2013-09-01 06:34:00,64.4,61.7,29.78,NE,40,0.0,0.0,91,0.00,,,0.00,VWS V14.01,2013-09-01 10:34:00,
2013-09-01 06:39:00,64.5,61.8,29.78,NE,40,0.0,0.0,91,0.00,,,0.00,VWS V14.01,2013-09-01 10:39:00,
2013-09-01 06:44:00,64.5,62.1,29.79,NE,40,0.0,0.0,92,0.00,,,0.00,VWS V14.01,2013-09-01 10:44:00,
2013-09-01 06:45:00,64.5,62.1,29.79,NE,40,0.0,0.0,92,0.00,,SCT033,0.00,VWS V15.00,2013-09-01 10:45:00,
2013-09-01 06:49:00,64.5,62.1,29.78,NE,40,0.0,0.0,92,0.00,,,0.00,VWS V14.01,2013-09-01 10:49:00,
2013-09-01 06:55:00,64.5,62.1,29.78,NE,40,0.0,0.0,92,0.00,,,0.00,VWS V14.01,2013-09-01 10:55:00,
2013-09-01 07:00:00,64.5,62.1,29.78,NE,40,0.0,0.0,92,0.00,,,0.00,VWS V14.01,2013-09-01 11:00:00,
2013-09-01 07:05:00,64.6,62.2,29.77,NE,40,0.0,5.0,92,0.00,,,0.00,VWS V14.01,2013-09-01 11:05:00,
2013-09-01 07:10:00,64.7,62.3,29.78,NE,40,0.0,0.0,92,0.00,,,0.00,VWS V14.01,2013-09-01 11:10:00,
2013-09-01 07:15:00,64.7,62.3,29.78,NE,40,0.0,0.0,92,0.00,,,0.00,VWS V14.01,2013-09-01 11:15:00,
2013-09-01 07:20:00,64.7,62.3,29.78,NE,40,0.0,0.0,92,0.00,,,0.00,VWS V14.01,2013-09-01 11:20:00,
2013-09-01 07:25:00,64.6,62.2,29.78,NE,40,0.0,0.0,92,0.00,,,0.00,VWS V14.01,2013-09-01 11:25:00,
2013-09-01 07:30:00,64.7,62.3,29.78,NE,40,0.0,0.0,92,0.00,,,0.00,VWS V14.01,2013-09-01 11:30:00,
2013-09-01 07:35:00,64.7,62.3,29.79,NE,40,0.0,0.0,92,0.00,,,0.00,VWS V14.01,2013-09-01 11:35:00,
2013-09-01 07:40:00,64.9,62.8,29.79,ENE,78,0.0,0.0,93,0.00,,,0.00,VWS V14.01,2013-09-01 11:40:00,
2013-09-01 07:45:00,65.1,63.0,29.79,NE,42,0.0,0.0,93,0.00,,,0.00,VWS V14.01,2013-09-01 11:45:00,
2013-09-01 07:50:00,65.3,63.2,29.79,NE,42,0.0,1.0,93,0.00,,,0.00,VWS V14.01,2013-09-01 11:50:00,
2013-09-01 07:55:00,65.5,63.4,29.79,NE,42,0.0,0.0,93,0.00,,,0.00,VWS V14.01,2013-09-01 11:55:00,
2013-09-01 08:00:00,65.6,63.5,29.78,NE,42,0.0,0.0,93,0.00,,,0.00,VWS V14.01,2013-09-01 12:00:00,
2013-09-01 08:05:00,65.7,63.6,29.78,NE,42,0.0,0.0,93,0.00,,,0.00,VWS V14.01,2013-09-01 12:05:00,
2013-09-01 08:10:00,65.8,63.7,29.77,NE,54,0.0,0.0,93,0.00,,,0.00,VWS V14.01,2013-09-01 12:10:00,
2013-09-01 08:15:00,66.0,63.9,29.78,NE,54,0.0,0.0,93,0.00,,,0.00,VWS V14.01,2013-09-01 12:15:00,
2013-09-01 08:20:00,66.2,64.1,29.78,NE,54,0.0,0.0,93,0.00,,,0.00,VWS V14.01,2013-09-01 12:20:00,
2013-09-01 08:25:00,66.5,64.4,29.78,NE,54,0.0,0.0,93,0.00,,,0.00,VWS V14.01,2013-09-01 12:25:00,
2013-09-01 08:30:00,66.9,65.1,29.77,NE,54,0.0,0.0,94,0.00,,,0.00,VWS V14.01,2013-09-01 12:30:00,
2013-09-01 08:35:00,67.3,65.5,29.78,ENE,72,0.0,0.0,94,0.00,,,0.00,VWS V14.01,2013-09-01 12:35:00,
2013-09-01 08:40:00,67.5,65.7,29.77,ENE,72,0.0,0.0,94,0.00,,,0.00,VWS V14.01,2013-09-01 12:40:00,
2013-09-01 08:45:00,67.7,65.9,29.78,ENE,72,0.0,0.0,94,0.00,,,0.00,VWS V14.01,2013-09-01 12:45:00,
2013-09-01 08:50:00,67.9,66.1,29.78,ENE,72,0.0,0.0,94,0.00,,,0.00,VWS V14.01,2013-09-01 12:50:00,
2013-09-01 08:55:00,68.1,66.3,29.78,ENE,72,0.0,0.0,94,0.00,,,0.00,VWS V14.01,2013-09-01 12:55:00,
2013-09-01 09:00:00,68.3,66.2,29.79,ENE,72,0.0,0.0,93,0.00,,,0.00,VWS V14.01,2013-09-01 13:00:00,
2013-09-01 09:05:00,68.4,66.3,29.79,ENE,72,0.0,0.0,93,0.00,,,0.00,VWS V14.01,2013-09-01 13:05:00,
2013-09-01 09:10:00,68.6,66.5,29.79,ENE,72,0.0,0.0,93,0.00,,,0.00,VWS V14.01,2013-09-01 13:10:00,
2013-09-01 09:15:00,68.8,66.7,29.79,ENE,72,0.0,0.0,93,0.00,,,0.00,VWS V14.01,2013-09-01 13:15:00,
2013-09-01 09:20:00,69.0,66.9,29.78,ENE,72,0.0,0.0,93,0.00,,,0.00,VWS V14.01,2013-09-01 13:20:00,
2013-09-01 09:25:00,69.3,67.2,29.78,ENE,72,0.0,0.0,93,0.00,,,0.00,VWS V14.01,2013-09-01 13:25:00,
2013-09-01 09:30:00,69.5,67.4,29.79,ENE,72,0.0,1.0,93,0.00,,,0.00,VWS V14.01,2013-09-01 13:30:00,
2013-09-01 09:36:00,69.9,67.8,29.79,ENE,72,0.0,0.0,93,0.00,,,0.00,VWS V14.01,2013-09-01 13:36:00,
2013-09-01 09:41:00,70.1,68.0,29.79,ENE,72,0.0,0.0,93,0.00,,,0.00,VWS V14.01,2013-09-01 13:41:00,
2013-09-01 09:45:00,70.3,68.2,29.79,ENE,72,0.0,0.0,93,0.00,,SCT033,0.00,VWS V15.00,2013-09-01 13:45:00,
2013-09-01 09:46:00,70.3,68.2,29.78,ENE,72,0.0,0.0,93,0.00,,,0.00,VWS V14.01,2013-09-01 13:46:00,
2013-09-01 09:51:00,70.6,68.5,29.78,ENE,72,0.0,0.0,93,0.00,,,0.00,VWS V14.01,2013-09-01 13:51:00,
2013-09-01 09:56:00,70.8,68.7,29.78,ENE,72,0.0,0.0,93,0.00,,,0.00,VWS V14.01,2013-09-01 13:56:00,
2013-09-01 10:00:00,71.0,68.9,29.79,ENE,72,0.0,0.0,93,0.00,,SCT033,0.00,VWS V15.00,2013-09-01 14:00:00,
2013-09-01 10:01:00,71.0,68.6,29.79,ENE,72,0.0,0.0,92,0.00,,,0.00,VWS V14.01,2013-09-01 14:01:00,
2013-09-01 10:06:00,71.2,68.8,29.78,ENE,72,0.0,0.0,92,0.00,,,0.00,VWS V14.01,2013-09-01 14:06:00,
2013-09-01 10:11:00,71.5,69.1,29.78,East,84,6.0,7.0,92,0.00,,,0.00,VWS V14.01,2013-09-01 14:11:00,
2013-09-01 10:15:00,71.7,69.3,29.78,East,91,0.0,2.0,92,0.00,,SCT033,0.00,VWS V15.00,2013-09-01 14:15:00,
2013-09-01 10:16:00,71.8,69.3,29.78,East,91,0.0,0.0,92,0.00,,,0.00,VWS V14.01,2013-09-01 14:16:00,
2013-09-01 10:21:00,71.9,69.1,29.78,East,91,0.0,1.0,91,0.00,,,0.00,VWS V14.01,2013-09-01 14:21:00,
2013-09-01 10:26:00,72.1,69.0,29.78,East,91,0.0,0.0,90,0.00,,,0.00,VWS V14.01,2013-09-01 14:26:00,
2013-09-01 10:30:00,72.3,69.2,29.78,East,91,0.0,0.0,90,0.00,,SCT033,0.00,VWS V15.00,2013-09-01 14:30:00,
2013-09-01 10:31:00,72.4,69.3,29.78,East,91,1.0,1.0,90,0.00,,,0.00,VWS V14.01,2013-09-01 14:31:00,
2013-09-01 10:36:00,72.7,69.6,29.78,East,91,0.0,2.0,90,0.00,,,0.00,VWS V14.01,2013-09-01 14:36:00,
2013-09-01 10:41:00,72.9,69.5,29.78,East,91,0.0,0.0,89,0.00,,,0.00,VWS V14.01,2013-09-01 14:41:00,
2013-09-01 10:45:00,73.2,69.8,29.78,East,91,0.0,0.0,89,0.00,,SCT033,0.00,VWS V15.00,2013-09-01 14:45:00,
2013-09-01 10:46:00,73.2,69.4,29.78,East,91,0.0,0.0,88,0.00,,,0.00,VWS V14.01,2013-09-01 14:46:00,
2013-09-01 10:51:00,73.5,69.7,29.79,East,91,0.0,0.0,88,0.00,,,0.00,VWS V14.01,2013-09-01 14:51:00,
2013-09-01 10:56:00,73.7,69.6,29.79,East,91,0.0,0.0,87,0.00,,,0.00,VWS V14.01,2013-09-01 14:56:00,
2013-09-01 11:00:00,73.9,69.8,29.79,East,91,0.0,0.0,87,0.00,,SCT033,0.00,VWS V15.00,2013-09-01 15:00:00,
2013-09-01 11:01:00,73.9,69.4,29.79,East,91,0.0,0.0,86,0.00,,,0.00,VWS V14.01,2013-09-01 15:01:00,
2013-09-01 11:06:00,74.1,69.7,29.80,East,91,0.0,0.0,86,0.00,,,0.00,VWS V14.01,2013-09-01 15:06:00,
2013-09-01 11:11:00,74.3,69.8,29.79,East,91,0.0,0.0,86,0.00,,,0.00,VWS V14.01,2013-09-01 15:11:00,
2013-09-01 11:15:00,74.5,69.7,29.79,East,91,0.0,1.0,85,0.00,,SCT033,0.00,VWS V15.00,2013-09-01 15:15:00,
2013-09-01 11:16:00,74.5,69.7,29.79,East,91,0.0,0.0,85,0.00,,,0.00,VWS V14.01,2013-09-01 15:16:00,
2013-09-01 11:21:00,74.8,69.7,29.79,East,91,0.0,0.0,84,0.00,,,0.00,VWS V14.01,2013-09-01 15:21:00,
2013-09-01 11:26:00,74.9,69.7,29.79,East,91,0.0,0.0,84,0.00,,,0.00,VWS V14.01,2013-09-01 15:26:00,
2013-09-01 11:30:00,75.0,69.8,29.79,East,91,0.0,0.0,84,0.00,,SCT033,0.00,VWS V15.00,2013-09-01 15:30:00,
2013-09-01 11:31:00,75.1,69.9,29.79,East,91,0.0,0.0,84,0.00,,,0.00,VWS V14.01,2013-09-01 15:31:00,
2013-09-01 11:36:00,75.3,69.8,29.79,East,91,0.0,0.0,83,0.00,,,0.00,VWS V14.01,2013-09-01 15:36:00,
2013-09-01 11:41:00,75.3,69.4,29.79,East,91,0.0,0.0,82,0.00,,,0.00,VWS V14.01,2013-09-01 15:41:00,
2013-09-01 11:45:00,75.3,69.8,29.79,East,91,0.0,0.0,83,0.00,,SCT033,0.00,VWS V15.00,2013-09-01 15:45:00,
2013-09-01 11:46:00,75.4,69.9,29.79,East,91,0.0,0.0,83,0.00,,,0.00,VWS V14.01,2013-09-01 15:46:00,
2013-09-01 11:51:00,75.5,69.6,29.79,East,91,0.0,0.0,82,0.00,,,0.00,VWS V14.01,2013-09-01 15:51:00,
2013-09-01 11:57:00,75.6,69.7,29.78,East,91,0.0,1.0,82,0.00,,,0.00,VWS V14.01,2013-09-01 15:57:00,
2013-09-01 12:00:00,75.7,69.8,29.78,East,91,0.0,1.0,82,0.00,,SCT033,0.00,VWS V15.00,2013-09-01 16:00:00,
2013-09-01 12:02:00,75.7,69.8,29.78,East,91,0.0,0.0,82,0.00,,,0.00,VWS V14.01,2013-09-01 16:02:00,
2013-09-01 12:07:00,75.8,69.9,29.78,East,91,0.0,0.0,82,0.00,,,0.00,VWS V14.01,2013-09-01 16:07:00,
2013-09-01 12:12:00,76.0,70.1,29.78,East,91,0.0,0.0,82,0.00,,,0.00,VWS V14.01,2013-09-01 16:12:00,
2013-09-01 12:15:00,76.2,70.3,29.78,East,91,0.0,0.0,82,0.00,,SCT033,0.00,VWS V15.00,2013-09-01 16:15:00,
2013-09-01 12:17:00,76.3,70.4,29.78,East,91,0.0,0.0,82,0.00,,,0.00,VWS V14.01,2013-09-01 16:17:00,
2013-09-01 12:22:00,76.3,70.1,29.78,East,91,0.0,0.0,81,0.00,,,0.00,VWS V14.01,2013-09-01 16:22:00,
2013-09-01 12:27:00,76.3,70.1,29.78,East,91,0.0,0.0,81,0.00,,,0.00,VWS V14.01,2013-09-01 16:27:00,
2013-09-01 12:30:00,76.4,70.1,29.78,East,91,0.0,1.0,81,0.00,,SCT033,0.00,VWS V15.00,2013-09-01 16:30:00,
2013-09-01 12:32:00,76.4,70.1,29.78,East,91,0.0,0.0,81,0.00,,,0.00,VWS V14.01,2013-09-01 16:32:00,
2013-09-01 12:37:00,76.6,70.3,29.78,East,91,0.0,0.0,81,0.00,,,0.00,VWS V14.01,2013-09-01 16:37:00,
2013-09-01 12:42:00,76.7,70.4,29.78,East,91,0.0,0.0,81,0.00,,,0.00,VWS V14.01,2013-09-01 16:42:00,
2013-09-01 12:45:00,76.8,70.5,29.79,East,91,0.0,0.0,81,0.00,,SCT033,0.00,VWS V15.00,2013-09-01 16:45:00,
2013-09-01 12:47:00,76.7,70.1,29.78,East,91,0.0,0.0,80,0.00,,,0.00,VWS V14.01,2013-09-01 16:47:00,
2013-09-01 12:52:00,76.6,70.0,29.78,East,91,0.0,0.0,80,0.00,,,0.00,VWS V14.01,2013-09-01 16:52:00,
2013-09-01 12:57:00,76.5,69.9,29.78,East,91,0.0,0.0,80,0.00,,,0.00,VWS V14.01,2013-09-01 16:57:00,
2013-09-01 13:00:00,76.4,70.1,29.78,East,91,0.0,0.0,81,0.00,,SCT033,0.00,VWS V15.00,2013-09-01 17:00:00,
2013-09-01 13:02:00,76.4,70.1,29.78,East,91,0.0,0.0,81,0.00,,,0.00,VWS V14.01,2013-09-01 17:02:00,
2013-09-01 13:07:00,76.6,70.7,29.77,East,91,0.0,0.0,82,0.00,,,0.00,VWS V14.01,2013-09-01 17:07:00,
2013-09-01 13:12:00,76.8,70.9,29.77,East,91,0.0,0.0,82,0.00,,,0.00,VWS V14.01,2013-09-01 17:12:00,
2013-09-01 13:15:00,77.1,71.2,29.77,East,91,0.0,0.0,82,0.00,,SCT033,0.00,VWS V15.00,2013-09-01 17:15:00,
2013-09-01 13:17:00,77.3,71.4,29.77,East,91,0.0,0.0,82,0.00,,,0.00,VWS V14.01,2013-09-01 17:17:00,
2013-09-01 13:22:00,78.0,71.7,29.76,East,91,0.0,0.0,81,0.00,,,0.00,VWS V14.01,2013-09-01 17:22:00,
2013-09-01 13:27:00,78.7,71.6,29.77,East,91,0.0,0.0,79,0.00,,,0.00,VWS V14.01,2013-09-01 17:27:00,
2013-09-01 13:30:00,79.0,71.9,29.76,East,91,0.0,0.0,79,0.00,,SCT033,0.00,VWS V15.00,2013-09-01 17:30:00,
2013-09-01 13:32:00,79.3,71.8,29.76,East,91,0.0,0.0,78,0.00,,,0.00,VWS V14.01,2013-09-01 17:32:00,
2013-09-01 13:37:00,79.9,72.1,29.76,East,91,0.0,0.0,77,0.00,,,0.00,VWS V14.01,2013-09-01 17:37:00,
2013-09-01 13:42:00,80.5,72.2,29.77,East,91,0.0,0.0,76,0.00,,,0.00,VWS V14.01,2013-09-01 17:42:00,
2013-09-01 13:45:00,80.8,72.1,29.77,East,91,0.0,0.0,75,0.00,,SCT033,0.00,VWS V15.00,2013-09-01 17:45:00,
2013-09-01 13:47:00,81.0,71.9,29.76,East,91,0.0,0.0,74,0.00,,,0.00,VWS V14.01,2013-09-01 17:47:00,
2013-09-01 13:52:00,81.0,71.5,29.76,East,91,0.0,0.0,73,0.00,,,0.00,VWS V14.01,2013-09-01 17:52:00,
2013-09-01 13:57:00,81.2,71.7,29.76,East,91,0.0,0.0,73,0.00,,,0.00,VWS V14.01,2013-09-01 17:57:00,
2013-09-01 14:00:00,81.3,71.4,29.76,East,91,0.0,0.0,72,0.00,,SCT033,0.00,VWS V15.00,2013-09-01 18:00:00,
2013-09-01 14:02:00,81.3,71.4,29.76,East,91,0.0,0.0,72,0.00,,,0.00,VWS V14.01,2013-09-01 18:02:00,
2013-09-01 14:08:00,81.7,71.4,29.76,East,91,0.0,3.0,71,0.00,,,0.00,VWS V14.01,2013-09-01 18:08:00,
2013-09-01 14:13:00,82.2,71.4,29.76,East,91,0.0,0.0,70,0.00,,,0.00,VWS V14.01,2013-09-01 18:13:00,
2013-09-01 14:15:00,82.3,71.1,29.76,East,91,0.0,0.0,69,0.00,,SCT033,0.00,VWS V15.00,2013-09-01 18:15:00,
2013-09-01 14:18:00,82.5,71.3,29.76,East,91,0.0,0.0,69,0.00,,,0.00,VWS V14.01,2013-09-01 18:18:00,
2013-09-01 14:23:00,82.6,71.0,29.76,East,91,0.0,0.0,68,0.00,,,0.00,VWS V14.01,2013-09-01 18:23:00,
2013-09-01 14:28:00,82.5,70.4,29.76,East,91,0.0,0.0,67,0.00,,,0.00,VWS V14.01,2013-09-01 18:28:00,
2013-09-01 14:30:00,82.5,71.3,29.76,East,91,0.0,0.0,69,0.00,,SCT033,0.00,VWS V15.00,2013-09-01 18:30:00,
2013-09-01 14:33:00,82.6,71.8,29.76,East,91,0.0,0.0,70,0.00,,,0.00,VWS V14.01,2013-09-01 18:33:00,
2013-09-01 14:38:00,83.2,72.0,29.76,East,91,0.0,0.0,69,0.00,,,0.00,VWS V14.01,2013-09-01 18:38:00,
2013-09-01 14:43:00,83.8,71.7,29.76,East,91,2.0,2.0,67,0.00,,,0.00,VWS V14.01,2013-09-01 18:43:00,
2013-09-01 14:45:00,84.0,72.3,29.76,East,91,0.0,0.0,68,0.00,,SCT033,0.00,VWS V15.00,2013-09-01 18:45:00,
2013-09-01 14:48:00,84.3,71.7,29.75,East,91,0.0,0.0,66,0.00,,,0.00,VWS V14.01,2013-09-01 18:48:00,
2013-09-01 14:53:00,84.6,72.0,29.75,East,91,0.0,0.0,66,0.00,,,0.00,VWS V14.01,2013-09-01 18:53:00,
2013-09-01 14:58:00,85.1,72.5,29.75,East,91,0.0,0.0,66,0.00,,,0.00,VWS V14.01,2013-09-01 18:58:00,
2013-09-01 15:00:00,85.3,72.2,29.75,East,91,0.0,2.0,65,0.00,,SCT033,0.00,VWS V15.00,2013-09-01 19:00:00,
2013-09-01 15:03:00,85.6,72.0,29.75,East,91,0.0,4.0,64,0.00,,BKN180,0.00,VWS V14.01,2013-09-01 19:03:00,
2013-09-01 15:08:00,85.9,70.9,29.75,East,91,7.0,7.0,61,0.00,,BKN180,0.00,VWS V14.01,2013-09-01 19:08:00,
2013-09-01 15:13:00,86.2,72.1,29.75,East,101,0.0,0.0,63,0.00,,BKN180,0.00,VWS V14.01,2013-09-01 19:13:00,
2013-09-01 15:15:00,86.3,71.8,29.75,East,101,0.0,0.0,62,0.00,,SCT033,0.00,VWS V15.00,2013-09-01 19:15:00,
2013-09-01 15:18:00,86.2,71.7,29.75,East,101,0.0,1.0,62,0.00,,BKN180,0.00,VWS V14.01,2013-09-01 19:18:00,
2013-09-01 15:23:00,86.0,71.0,29.74,ESE,103,3.0,5.0,61,0.00,,BKN180,0.00,VWS V14.01,2013-09-01 19:23:00,
2013-09-01 15:28:00,86.2,72.1,29.74,ESE,112,0.0,0.0,63,0.00,,BKN180,0.00,VWS V14.01,2013-09-01 19:28:00,
2013-09-01 15:30:00,86.3,72.2,29.74,ESE,112,2.0,2.0,63,0.00,,SCT033,0.00,VWS V15.00,2013-09-01 19:30:00,
2013-09-01 15:33:00,86.5,71.5,29.74,SE,143,4.0,7.0,61,0.00,,BKN180,0.00,VWS V14.01,2013-09-01 19:33:00,
2013-09-01 15:38:00,86.4,71.4,29.74,SSE,162,7.0,7.0,61,0.00,,BKN180,0.00,VWS V14.01,2013-09-01 19:38:00,
2013-09-01 15:43:00,86.1,70.6,29.74,South,177,7.0,7.0,60,0.00,,BKN180,0.00,VWS V14.01,2013-09-01 19:43:00,
2013-09-01 15:45:00,86.0,70.5,29.74,South,177,0.0,5.0,60,0.00,,SCT033,0.00,VWS V15.00,2013-09-01 19:45:00,
2013-09-01 15:49:00,86.0,70.5,29.74,South,177,2.0,6.0,60,0.00,,BKN180,0.00,VWS V14.01,2013-09-01 19:49:00,
2013-09-01 15:54:00,85.9,70.9,29.73,South,177,0.0,6.0,61,0.00,,BKN180,0.00,VWS V14.01,2013-09-01 19:54:00,
2013-09-01 15:59:00,86.0,71.0,29.73,South,177,6.0,7.0,61,0.00,,BKN180,0.00,VWS V14.01,2013-09-01 19:59:00,
2013-09-01 16:00:00,85.9,70.4,29.73,South,177,1.0,7.0,60,0.00,,SCT033,0.00,VWS V15.00,2013-09-01 20:00:00,
2013-09-01 16:04:00,85.7,70.2,29.73,South,177,0.0,0.0,60,0.00,,BKN180,0.00,VWS V14.01,2013-09-01 20:04:00,
2013-09-01 16:09:00,85.5,71.0,29.73,South,177,0.0,0.0,62,0.00,,BKN180,0.00,VWS V14.01,2013-09-01 20:09:00,
2013-09-01 16:14:00,85.8,70.8,29.73,South,177,0.0,5.0,61,0.00,,BKN200,0.00,VWS V14.01,2013-09-01 20:14:00,
2013-09-01 16:15:00,85.9,70.9,29.73,South,177,0.0,8.0,61,0.00,,SCT033,0.00,VWS V15.00,2013-09-01 20:15:00,
2013-09-01 16:19:00,86.3,70.3,29.73,SSW,195,0.0,9.0,59,0.00,,BKN200,0.00,VWS V14.01,2013-09-01 20:19:00,
2013-09-01 16:24:00,86.7,70.2,29.73,SSW,195,3.0,5.0,58,0.00,,BKN200,0.00,VWS V14.01,2013-09-01 20:24:00,
2013-09-01 16:29:00,86.9,70.4,29.73,SSW,213,7.0,8.0,58,0.00,,BKN200,0.00,VWS V14.01,2013-09-01 20:29:00,
2013-09-01 16:30:00,87.0,70.4,29.73,SSW,213,2.0,7.0,58,0.00,,SCT033,0.00,VWS V15.00,2013-09-01 20:30:00,
2013-09-01 16:34:00,87.0,70.4,29.73,SSW,213,7.0,7.0,58,0.00,,BKN200,0.00,VWS V14.01,2013-09-01 20:34:00,
2013-09-01 16:39:00,86.9,70.9,29.73,SSW,213,2.0,8.0,59,0.00,,BKN200,0.00,VWS V14.01,2013-09-01 20:39:00,
2013-09-01 16:44:00,86.8,69.8,29.73,SW,218,0.0,11.0,57,0.00,,BKN200,0.00,VWS V14.01,2013-09-01 20:44:00,
2013-09-01 16:45:00,86.7,69.7,29.73,SW,218,0.0,5.0,57,0.00,,SCT033,0.00,VWS V15.00,2013-09-01 20:45:00,
2013-09-01 16:49:00,86.3,69.8,29.73,SW,218,4.0,8.0,58,0.00,,BKN200,0.00,VWS V14.01,2013-09-01 20:49:00,
2013-09-01 16:54:00,86.1,70.6,29.73,SW,217,0.0,7.0,60,0.00,,BKN200,0.00,VWS V14.01,2013-09-01 20:54:00,
2013-09-01 16:59:00,86.1,70.6,29.73,SW,217,0.0,0.0,60,0.00,,BKN200,0.00,VWS V14.01,2013-09-01 20:59:00,
2013-09-01 17:00:00,86.0,70.5,29.73,SW,218,0.0,0.0,60,0.00,,SCT033,0.00,VWS V15.00,2013-09-01 21:00:00,
2013-09-01 17:04:00,86.0,70.5,29.72,SW,218,0.0,1.0,60,0.00,,BKN200,0.00,VWS V14.01,2013-09-01 21:04:00,
2013-09-01 17:09:00,86.1,70.1,29.72,SW,220,0.0,5.0,59,0.00,,BKN200,0.00,VWS V14.01,2013-09-01 21:09:00,
2013-09-01 17:14:00,86.2,70.7,29.72,SW,219,0.0,3.0,60,0.00,,BKN200,0.00,VWS V14.01,2013-09-01 21:14:00,
2013-09-01 17:15:00,86.3,70.8,29.72,SW,219,2.0,2.0,60,0.00,,SCT033,0.00,VWS V15.00,2013-09-01 21:15:00,
2013-09-01 17:20:00,86.3,71.3,29.72,SW,231,8.0,10.0,61,0.00,,BKN200,0.00,VWS V14.01,2013-09-01 21:20:00,
2013-09-01 17:25:00,86.1,71.1,29.72,SW,230,8.0,9.0,61,0.00,,BKN200,0.00,VWS V14.01,2013-09-01 21:25:00,
2013-09-01 17:30:00,86.1,71.6,29.72,SW,226,0.0,0.0,62,0.00,,BKN200,0.00,VWS V14.01,2013-09-01 21:30:00,
2013-09-01 17:35:00,86.0,71.5,29.72,SW,226,0.0,4.0,62,0.00,,BKN200,0.00,VWS V14.01,2013-09-01 21:35:00,
2013-09-01 17:40:00,85.9,71.8,29.71,SW,226,0.0,6.0,63,0.00,,BKN200,0.00,VWS V14.01,2013-09-01 21:40:00,
2013-09-01 17:45:00,85.6,71.6,29.71,WSW,240,2.0,7.0,63,0.00,,BKN200,0.00,VWS V14.01,2013-09-01 21:45:00,
2013-09-01 17:50:00,85.2,71.2,29.71,SW,220,0.0,0.0,63,0.00,,BKN200,0.00,VWS V14.01,2013-09-01 21:50:00,
2013-09-01 17:55:00,84.9,71.8,29.71,SW,221,6.0,10.0,65,0.00,,BKN200,0.00,VWS V14.01,2013-09-01 21:55:00,
2013-09-01 18:00:00,84.5,71.4,29.71,SW,221,0.0,9.0,65,0.00,,BKN200,0.00,VWS V14.01,2013-09-01 22:00:00,
2013-09-01 18:05:00,84.0,71.4,29.72,SW,232,0.0,0.0,66,0.00,,BKN200,0.00,VWS V14.01,2013-09-01 22:05:00,
2013-09-01 18:10:00,83.8,71.7,29.72,SW,229,1.0,9.0,67,0.00,,SCT200,0.00,VWS V14.01,2013-09-01 22:10:00,
2013-09-01 18:15:00,83.5,71.4,29.72,SW,220,0.0,0.0,67,0.00,,SCT200,0.00,VWS V14.01,2013-09-01 22:15:00,
2013-09-01 18:20:00,83.3,71.6,29.72,SW,220,0.0,4.0,68,0.00,,SCT200,0.00,VWS V14.01,2013-09-01 22:20:00,
2013-09-01 18:25:00,82.8,71.2,29.72,WSW,240,0.0,8.0,68,0.00,,SCT200,0.00,VWS V14.01,2013-09-01 22:25:00,
2013-09-01 18:30:00,82.4,71.2,29.72,SSW,201,9.0,10.0,69,0.00,,SCT200,0.00,VWS V14.01,2013-09-01 22:30:00,
2013-09-01 18:35:00,82.0,71.3,29.72,SSW,203,6.0,7.0,70,0.00,,SCT200,0.00,VWS V14.01,2013-09-01 22:35:00,
2013-09-01 18:40:00,81.6,70.9,29.72,SSW,212,0.0,1.0,70,0.00,,SCT200,0.00,VWS V14.01,2013-09-01 22:40:00,
2013-09-01 18:45:00,81.2,70.9,29.72,SSW,212,0.0,0.0,71,0.00,,SCT200,0.00,VWS V14.01,2013-09-01 22:45:00,
2013-09-01 18:50:00,80.8,70.5,29.72,SSW,212,0.0,0.0,71,0.00,,SCT200,0.00,VWS V14.01,2013-09-01 22:50:00,
2013-09-01 18:56:00,80.6,70.8,29.72,SSW,212,0.0,0.0,72,0.00,,SCT200,0.00,VWS V14.01,2013-09-01 22:56:00,
2013-09-01 19:00:00,80.3,70.5,29.72,SSW,212,0.0,6.0,72,0.00,,SCT033,0.00,VWS V15.00,2013-09-01 23:00:00,
2013-09-01 19:01:00,80.3,70.5,29.72,SSW,212,0.0,5.0,72,0.00,,SCT200,0.00,VWS V14.01,2013-09-01 23:01:00,
2013-09-01 19:06:00,80.1,70.7,29.72,SSW,212,0.0,3.0,73,0.00,,SCT200,0.00,VWS V14.01,2013-09-01 23:06:00,
2013-09-01 19:11:00,79.7,70.7,29.72,SSW,212,0.0,0.0,74,0.00,,SCT200,0.00,VWS V14.01,2013-09-01 23:11:00,
2013-09-01 19:15:00,79.4,70.4,29.72,SSW,212,0.0,0.0,74,0.00,,SCT033,0.00,VWS V15.00,2013-09-01 23:15:00,
2013-09-01 19:16:00,79.4,70.4,29.72,SSW,212,0.0,0.0,74,0.00,,SCT200,0.00,VWS V14.01,2013-09-01 23:16:00,
2013-09-01 19:21:00,79.1,70.5,29.72,SSW,212,0.0,0.0,75,0.00,,SCT200,0.00,VWS V14.01,2013-09-01 23:21:00,
2013-09-01 19:26:00,78.9,70.3,29.72,SSW,212,0.0,0.0,75,0.00,,SCT200,0.00,VWS V14.01,2013-09-01 23:26:00,
2013-09-01 19:30:00,78.8,70.6,29.72,SSW,212,0.0,0.0,76,0.00,,SCT033,0.00,VWS V15.00,2013-09-01 23:30:00,
2013-09-01 19:31:00,78.7,70.5,29.72,SSW,212,0.0,0.0,76,0.00,,SCT200,0.00,VWS V14.01,2013-09-01 23:31:00,
2013-09-01 19:36:00,78.6,70.4,29.72,SSW,212,0.0,0.0,76,0.00,,SCT200,0.00,VWS V14.01,2013-09-01 23:36:00,
2013-09-01 19:41:00,78.3,70.1,29.73,SSW,213,0.0,6.0,76,0.00,,SCT200,0.00,VWS V14.01,2013-09-01 23:41:00,
2013-09-01 19:45:00,78.1,70.3,29.72,SSW,213,0.0,0.0,77,0.00,,SCT033,0.00,VWS V15.00,2013-09-01 23:45:00,
2013-09-01 19:46:00,78.1,70.3,29.72,SSW,213,0.0,0.0,77,0.00,,SCT200,0.00,VWS V14.01,2013-09-01 23:46:00,
2013-09-01 19:51:00,77.8,70.0,29.72,SSW,213,0.0,0.0,77,0.00,,SCT200,0.00,VWS V14.01,2013-09-01 23:51:00,
2013-09-01 19:56:00,77.6,69.8,29.72,SSW,213,0.0,5.0,77,0.00,,SCT200,0.00,VWS V14.01,2013-09-01 23:56:00,
2013-09-01 20:00:00,77.4,70.0,29.72,SSW,213,0.0,0.0,78,0.00,,SCT033,0.00,VWS V15.00,2013-09-02 00:00:00,
2013-09-01 20:01:00,77.4,70.0,29.73,SSW,213,0.0,3.0,78,0.00,,BKN200,0.00,VWS V14.01,2013-09-02 00:01:00,
2013-09-01 20:06:00,77.1,69.7,29.72,SSW,213,0.0,0.0,78,0.00,,BKN200,0.00,VWS V14.01,2013-09-02 00:06:00,
2013-09-01 20:11:00,76.9,69.5,29.72,SSW,213,0.0,0.0,78,0.00,,BKN200,0.00,VWS V14.01,2013-09-02 00:11:00,
2013-09-01 20:15:00,76.8,69.8,29.72,SSW,213,0.0,0.0,79,0.00,,SCT033,0.00,VWS V15.00,2013-09-02 00:15:00,
2013-09-01 20:16:00,76.7,69.7,29.72,SSW,213,0.0,0.0,79,0.00,,BKN200,0.00,VWS V14.01,2013-09-02 00:16:00,
2013-09-01 20:21:00,76.4,69.4,29.72,SSW,213,0.0,0.0,79,0.00,,BKN200,0.00,VWS V14.01,2013-09-02 00:21:00,
2013-09-01 20:26:00,76.2,69.2,29.73,SSW,213,0.0,0.0,79,0.00,,BKN200,0.00,VWS V14.01,2013-09-02 00:26:00,
2013-09-01 20:30:00,76.0,69.4,29.72,SSW,213,0.0,0.0,80,0.00,,SCT033,0.00,VWS V15.00,2013-09-02 00:30:00,
2013-09-01 20:32:00,75.8,69.2,29.73,SSW,213,0.0,0.0,80,0.00,,BKN200,0.00,VWS V14.01,2013-09-02 00:32:00,
2013-09-01 20:37:00,75.6,69.4,29.73,SSW,213,0.0,0.0,81,0.00,,BKN200,0.00,VWS V14.01,2013-09-02 00:37:00,
2013-09-01 20:42:00,75.3,69.1,29.73,SSW,213,0.0,0.0,81,0.00,,BKN200,0.00,VWS V14.01,2013-09-02 00:42:00,
2013-09-01 20:45:00,75.2,69.0,29.73,SSW,213,0.0,0.0,81,0.00,,SCT033,0.00,VWS V15.00,2013-09-02 00:45:00,
2013-09-01 20:47:00,75.1,69.2,29.73,SSW,213,0.0,0.0,82,0.00,,BKN200,0.00,VWS V14.01,2013-09-02 00:47:00,
2013-09-01 20:52:00,74.9,69.0,29.73,SSW,213,0.0,0.0,82,0.00,,BKN200,0.00,VWS V14.01,2013-09-02 00:52:00,
2013-09-01 20:57:00,74.6,69.1,29.73,SSW,213,0.0,0.0,83,0.00,,BKN200,0.00,VWS V14.01,2013-09-02 00:57:00,
2013-09-01 21:00:00,74.5,69.0,29.74,SSW,213,0.0,0.0,83,0.00,,SCT033,0.00,VWS V15.00,2013-09-02 01:00:00,
2013-09-01 21:02:00,74.4,68.9,29.74,SSW,213,0.0,0.0,83,0.00,,BKN250,0.00,VWS V14.01,2013-09-02 01:02:00,
2013-09-01 21:07:00,74.2,68.7,29.74,SSW,213,0.0,0.0,83,0.00,,BKN250,0.00,VWS V14.01,2013-09-02 01:07:00,
2013-09-01 21:12:00,74.1,68.6,29.75,SSW,213,0.0,0.0,83,0.00,,BKN250,0.00,VWS V14.01,2013-09-02 01:12:00,
2013-09-01 21:15:00,74.0,68.5,29.74,SSW,213,0.0,0.0,83,0.00,,SCT033,0.00,VWS V15.00,2013-09-02 01:15:00,
2013-09-01 21:17:00,74.0,68.9,29.74,SSW,213,0.0,0.0,84,0.00,,BKN250,0.00,VWS V14.01,2013-09-02 01:17:00,
2013-09-01 21:22:00,73.9,68.8,29.74,SSW,213,0.0,0.0,84,0.00,,BKN250,0.00,VWS V14.01,2013-09-02 01:22:00,
2013-09-01 21:27:00,73.9,68.8,29.74,SSW,213,0.0,0.0,84,0.00,,BKN250,0.00,VWS V14.01,2013-09-02 01:27:00,
2013-09-01 21:30:00,73.8,68.7,29.75,SSW,213,0.0,0.0,84,0.00,,SCT033,0.00,VWS V15.00,2013-09-02 01:30:00,
2013-09-01 21:32:00,73.8,68.7,29.75,SSW,213,0.0,0.0,84,0.00,,BKN250,0.00,VWS V14.01,2013-09-02 01:32:00,
2013-09-01 21:37:00,73.7,68.6,29.75,SSW,213,0.0,0.0,84,0.00,,BKN250,0.00,VWS V14.01,2013-09-02 01:37:00,
2013-09-01 21:42:00,73.6,68.8,29.75,SSW,213,0.0,0.0,85,0.00,,BKN250,0.00,VWS V14.01,2013-09-02 01:42:00,
2013-09-01 21:45:00,73.5,68.7,29.75,SSW,213,0.0,0.0,85,0.00,,SCT033,0.00,VWS V15.00,2013-09-02 01:45:00,
2013-09-01 21:47:00,73.5,68.7,29.75,SSW,213,0.0,0.0,85,0.00,,BKN250,0.00,VWS V14.01,2013-09-02 01:47:00,
2013-09-01 21:52:00,73.4,68.6,29.75,SSW,213,0.0,0.0,85,0.00,,BKN250,0.00,VWS V14.01,2013-09-02 01:52:00,
2013-09-01 21:57:00,73.3,68.5,29.75,SSW,213,0.0,0.0,85,0.00,,BKN250,0.00,VWS V14.01,2013-09-02 01:57:00,
2013-09-01 22:00:00,73.2,68.4,29.75,SSW,213,0.0,0.0,85,0.00,,SCT033,0.00,VWS V15.00,2013-09-02 02:00:00,
2013-09-01 22:02:00,73.2,68.4,29.75,SSW,213,0.0,0.0,85,0.00,,OVC200,0.00,VWS V14.01,2013-09-02 02:02:00,
2013-09-01 22:08:00,73.0,68.2,29.75,SSW,213,0.0,0.0,85,0.00,,OVC200,0.00,VWS V14.01,2013-09-02 02:08:00,
2013-09-01 22:13:00,72.9,68.1,29.75,SSW,213,0.0,0.0,85,0.00,,OVC200,0.00,VWS V14.01,2013-09-02 02:13:00,
2013-09-01 22:15:00,72.9,68.1,29.75,SSW,213,0.0,0.0,85,0.00,,SCT033,0.00,VWS V15.00,2013-09-02 02:15:00,
2013-09-01 22:18:00,72.8,68.0,29.75,SSW,213,0.0,0.0,85,0.00,,OVC200,0.00,VWS V14.01,2013-09-02 02:18:00,
2013-09-01 22:23:00,72.7,68.3,29.76,SSW,213,0.0,0.0,86,0.00,,OVC200,0.00,VWS V14.01,2013-09-02 02:23:00,
2013-09-01 22:28:00,72.7,68.3,29.76,SSW,213,0.0,0.0,86,0.00,,OVC200,0.00,VWS V14.01,2013-09-02 02:28:00,
2013-09-01 22:30:00,72.7,68.3,29.76,SSW,213,0.0,0.0,86,0.00,,SCT033,0.00,VWS V15.00,2013-09-02 02:30:00,
2013-09-01 22:33:00,72.6,68.2,29.75,SSW,213,0.0,0.0,86,0.00,,OVC200,0.00,VWS V14.01,2013-09-02 02:33:00,
2013-09-01 22:38:00,72.5,68.4,29.76,SSW,213,0.0,0.0,87,0.00,,OVC200,0.00,VWS V14.01,2013-09-02 02:38:00,
2013-09-01 22:43:00,72.5,68.4,29.76,SSW,213,0.0,0.0,87,0.00,,OVC200,0.00,VWS V14.01,2013-09-02 02:43:00,
2013-09-01 22:45:00,72.5,68.4,29.76,SSW,213,0.0,0.0,87,0.00,,SCT033,0.00,VWS V15.00,2013-09-02 02:45:00,
2013-09-01 22:48:00,72.5,68.4,29.76,SSW,213,0.0,0.0,87,0.00,,OVC200,0.00,VWS V14.01,2013-09-02 02:48:00,
2013-09-01 22:53:00,72.6,68.8,29.76,SSW,213,0.0,0.0,88,0.00,,OVC200,0.00,VWS V14.01,2013-09-02 02:53:00,
2013-09-01 22:58:00,72.5,68.8,29.76,SSW,213,0.0,1.0,88,0.00,,OVC200,0.00,VWS V14.01,2013-09-02 02:58:00,
2013-09-01 23:00:00,72.6,68.8,29.76,SSW,213,0.0,0.0,88,0.00,,SCT033,0.00,VWS V15.00,2013-09-02 03:00:00,
2013-09-01 23:03:00,72.6,68.8,29.76,SSW,213,0.0,0.0,88,0.00,,OVC240,0.00,VWS V14.01,2013-09-02 03:03:00,
2013-09-01 23:08:00,72.6,68.8,29.76,SSW,213,0.0,0.0,88,0.00,,OVC240,0.00,VWS V14.01,2013-09-02 03:08:00,
2013-09-01 23:13:00,72.6,68.8,29.76,SSW,213,0.0,0.0,88,0.00,,OVC240,0.00,VWS V14.01,2013-09-02 03:13:00,
2013-09-01 23:15:00,72.6,68.8,29.76,SSW,213,0.0,0.0,88,0.00,,SCT033,0.00,VWS V15.00,2013-09-02 03:15:00,
2013-09-01 23:18:00,72.6,69.2,29.76,SSW,213,0.0,0.0,89,0.00,,OVC240,0.00,VWS V14.01,2013-09-02 03:18:00,
2013-09-01 23:23:00,72.5,69.1,29.76,SSW,213,0.0,0.0,89,0.00,,OVC240,0.00,VWS V14.01,2013-09-02 03:23:00,
2013-09-01 23:28:00,72.5,69.1,29.76,SSW,213,0.0,0.0,89,0.00,,OVC240,0.00,VWS V14.01,2013-09-02 03:28:00,
2013-09-01 23:30:00,72.5,69.1,29.76,SSW,213,0.0,0.0,89,0.00,,SCT033,0.00,VWS V15.00,2013-09-02 03:30:00,
2013-09-01 23:33:00,72.5,69.1,29.76,SSW,213,0.0,0.0,89,0.00,,OVC240,0.00,VWS V14.01,2013-09-02 03:33:00,
2013-09-01 23:39:00,72.5,69.1,29.76,SSW,213,0.0,0.0,89,0.00,,OVC240,0.00,VWS V14.01,2013-09-02 03:39:00,
2013-09-01 23:44:00,72.4,69.0,29.76,SSW,213,0.0,0.0,89,0.00,,OVC240,0.00,VWS V14.01,2013-09-02 03:44:00,
2013-09-01 23:45:00,72.4,69.0,29.76,SSW,213,0.0,0.0,89,0.00,,SCT033,0.00,VWS V15.00,2013-09-02 03:45:00,
2013-09-01 23:49:00,72.4,69.0,29.75,SSW,213,0.0,0.0,89,0.00,,OVC240,0.00,VWS V14.01,2013-09-02 03:49:00,
2013-09-01 23:54:00,72.3,68.9,29.75,SSW,213,0.0,0.0,89,0.00,,OVC240,0.00,VWS V14.01,2013-09-02 03:54:00,
2013-09-01 23:59:00,72.2,68.8,29.75,SSW,213,0.0,0.0,89,0.00,,OVC240,0.00,VWS V14.01,2013-09-02 03:59:00,